Saint Petersburg Beach, Florida
Current Conditions -  °F | °C
As of 6:53 PM on Friday 21 Nov 2014 (Local Time) from KSPG Reporting Station
Overcast Overcast  
Wind Chill: 66°   Ceiling: 7500
Heat Index: 66°   Visibility: 10mi
Dew Point: 57°   Wind: 13mph
Humidity: 73%   Direction: 60°ENE
Pressure: 30.22"   Gusts: NA
Location:  27.7254°N, 82.7422°W
Report Text: KSPG 212353Z 06011KT 10SM OVC075 19/14 A3022 RMK AO2 RAB20E41 SLP234 P0000 60000 T01890139 10206 20189 51010
Loading
Personal Weather Stations






























Interactive Weather Map New forecast layout! Learn more

10-Day Weather Forecast

Advertisements
Track Severe Weather on mobile